sensor_id;sensor_type;location;lat;lon;timestamp;temperature;humidity
21031;DHT22;61072;47.808;7.636;2022-07-22T00:00:07;22.50;99.90
21031;DHT22;61072;47.808;7.636;2022-07-22T00:02:36;22.40;99.90
21031;DHT22;61072;47.808;7.636;2022-07-22T00:05:03;22.40;99.90
21031;DHT22;61072;47.808;7.636;2022-07-22T00:07:30;22.30;99.90
21031;DHT22;61072;47.808;7.636;2022-07-22T00:09:57;22.30;99.90
21031;DHT22;61072;47.808;7.636;2022-07-22T00:12:24;22.20;99.90
21031;DHT22;61072;47.808;7.636;2022-07-22T00:14:51;22.30;99.90
21031;DHT22;61072;47.808;7.636;2022-07-22T00:17:18;22.20;99.90
21031;DHT22;61072;47.808;7.636;2022-07-22T00:19:44;22.20;99.90
21031;DHT22;61072;47.808;7.636;2022-07-22T00:22:11;22.20;99.90
21031;DHT22;61072;47.808;7.636;2022-07-22T00:24:38;22.00;99.90
21031;DHT22;61072;47.808;7.636;2022-07-22T00:27:05;21.90;99.90
21031;DHT22;61072;47.808;7.636;2022-07-22T00:29:31;21.90;99.90
21031;DHT22;61072;47.808;7.636;2022-07-22T00:31:58;21.90;99.90
21031;DHT22;61072;47.808;7.636;2022-07-22T00:34:25;21.90;99.90
21031;DHT22;61072;47.808;7.636;2022-07-22T00:36:52;21.80;99.90
21031;DHT22;61072;47.808;7.636;2022-07-22T00:39:18;21.80;99.90
21031;DHT22;61072;47.808;7.636;2022-07-22T00:41:45;21.80;99.90
21031;DHT22;61072;47.808;7.636;2022-07-22T00:44:12;21.80;99.90
21031;DHT22;61072;47.808;7.636;2022-07-22T00:46:39;21.80;99.90
21031;DHT22;61072;47.808;7.636;2022-07-22T00:49:07;21.80;99.90
21031;DHT22;61072;47.808;7.636;2022-07-22T00:51:36;21.70;99.90
21031;DHT22;61072;47.808;7.636;2022-07-22T00:54:04;21.70;99.90
21031;DHT22;61072;47.808;7.636;2022-07-22T00:56:31;21.70;99.90
21031;DHT22;61072;47.808;7.636;2022-07-22T00:59:01;21.70;99.90
21031;DHT22;61072;47.808;7.636;2022-07-22T01:01:29;21.70;99.90
21031;DHT22;61072;47.808;7.636;2022-07-22T01:03:56;21.50;99.90
21031;DHT22;61072;47.808;7.636;2022-07-22T01:06:29;21.50;99.90
21031;DHT22;61072;47.808;7.636;2022-07-22T01:08:56;21.40;99.90
21031;DHT22;61072;47.808;7.636;2022-07-22T01:11:25;21.40;99.90
21031;DHT22;61072;47.808;7.636;2022-07-22T01:13:53;21.40;99.90
21031;DHT22;61072;47.808;7.636;2022-07-22T01:16:20;21.30;99.90
21031;DHT22;61072;47.808;7.636;2022-07-22T01:18:47;21.30;99.90
21031;DHT22;61072;47.808;7.636;2022-07-22T01:21:15;21.20;99.90
21031;DHT22;61072;47.808;7.636;2022-07-22T01:23:43;21.10;99.90
21031;DHT22;61072;47.808;7.636;2022-07-22T01:26:10;21.20;99.90
21031;DHT22;61072;47.808;7.636;2022-07-22T01:28:37;21.20;99.90
21031;DHT22;61072;47.808;7.636;2022-07-22T01:31:04;21.10;99.90
21031;DHT22;61072;47.808;7.636;2022-07-22T01:33:31;21.10;99.90
21031;DHT22;61072;47.808;7.636;2022-07-22T01:35:59;21.10;99.90
21031;DHT22;61072;47.808;7.636;2022-07-22T01:38:26;21.00;99.90
21031;DHT22;61072;47.808;7.636;2022-07-22T01:40:52;21.00;99.90
21031;DHT22;61072;47.808;7.636;2022-07-22T01:43:20;21.00;99.90
21031;DHT22;61072;47.808;7.636;2022-07-22T01:45:49;21.00;99.90
21031;DHT22;61072;47.808;7.636;2022-07-22T01:48:17;20.90;99.90
21031;DHT22;61072;47.808;7.636;2022-07-22T01:50:44;21.00;99.90
21031;DHT22;61072;47.808;7.636;2022-07-22T01:53:11;21.00;99.90
21031;DHT22;61072;47.808;7.636;2022-07-22T01:55:41;20.80;99.90
21031;DHT22;61072;47.808;7.636;2022-07-22T01:58:07;20.80;99.90
21031;DHT22;61072;47.808;7.636;2022-07-22T02:00:38;20.80;99.90
21031;DHT22;61072;47.808;7.636;2022-07-22T02:03:05;20.70;99.90
21031;DHT22;61072;47.808;7.636;2022-07-22T02:05:33;20.70;99.90
21031;DHT22;61072;47.808;7.636;2022-07-22T02:08:02;20.70;99.90
21031;DHT22;61072;47.808;7.636;2022-07-22T02:10:32;20.70;99.90
21031;DHT22;61072;47.808;7.636;2022-07-22T02:12:59;20.60;99.90
21031;DHT22;61072;47.808;7.636;2022-07-22T02:15:27;20.60;99.90
21031;DHT22;61072;47.808;7.636;2022-07-22T02:17:55;20.70;99.90
21031;DHT22;61072;47.808;7.636;2022-07-22T02:20:23;20.70;99.90
21031;DHT22;61072;47.808;7.636;2022-07-22T02:22:50;20.60;99.90
21031;DHT22;61072;47.808;7.636;2022-07-22T02:25:17;20.60;99.90
21031;DHT22;61072;47.808;7.636;2022-07-22T02:27:46;20.60;99.90
21031;DHT22;61072;47.808;7.636;2022-07-22T02:30:14;20.60;99.90
21031;DHT22;61072;47.808;7.636;2022-07-22T02:32:44;20.50;99.90
21031;DHT22;61072;47.808;7.636;2022-07-22T02:35:13;20.50;99.90
21031;DHT22;61072;47.808;7.636;2022-07-22T02:37:46;20.60;99.90
21031;DHT22;61072;47.808;7.636;2022-07-22T02:40:13;20.60;99.90
21031;DHT22;61072;47.808;7.636;2022-07-22T02:42:42;20.50;99.90
21031;DHT22;61072;47.808;7.636;2022-07-22T02:45:09;20.50;99.90
21031;DHT22;61072;47.808;7.636;2022-07-22T02:47:49;20.50;99.90
21031;DHT22;61072;47.808;7.636;2022-07-22T02:50:17;20.40;99.90
21031;DHT22;61072;47.808;7.636;2022-07-22T02:52:47;20.30;99.90
21031;DHT22;61072;47.808;7.636;2022-07-22T02:55:16;20.30;99.90
21031;DHT22;61072;47.808;7.636;2022-07-22T02:57:44;20.30;99.90
21031;DHT22;61072;47.808;7.636;2022-07-22T03:00:14;20.30;99.90
21031;DHT22;61072;47.808;7.636;2022-07-22T03:02:42;20.20;99.90
21031;DHT22;61072;47.808;7.636;2022-07-22T03:05:09;20.20;99.90
21031;DHT22;61072;47.808;7.636;2022-07-22T03:07:39;20.20;99.90
21031;DHT22;61072;47.808;7.636;2022-07-22T03:10:07;20.10;99.90
21031;DHT22;61072;47.808;7.636;2022-07-22T03:12:35;20.20;99.90
21031;DHT22;61072;47.808;7.636;2022-07-22T03:15:03;20.10;99.90
21031;DHT22;61072;47.808;7.636;2022-07-22T03:17:34;20.00;99.90
21031;DHT22;61072;47.808;7.636;2022-07-22T03:20:10;20.10;99.90
21031;DHT22;61072;47.808;7.636;2022-07-22T03:22:38;20.00;99.90
21031;DHT22;61072;47.808;7.636;2022-07-22T03:25:05;19.90;99.90
21031;DHT22;61072;47.808;7.636;2022-07-22T03:27:33;19.90;99.90
21031;DHT22;61072;47.808;7.636;2022-07-22T03:30:03;20.00;99.90
21031;DHT22;61072;47.808;7.636;2022-07-22T03:32:30;19.90;99.90
21031;DHT22;61072;47.808;7.636;2022-07-22T03:35:00;19.90;99.90
21031;DHT22;61072;47.808;7.636;2022-07-22T03:37:30;19.80;99.90
21031;DHT22;61072;47.808;7.636;2022-07-22T03:40:02;19.80;99.90
21031;DHT22;61072;47.808;7.636;2022-07-22T03:42:32;19.80;99.90
21031;DHT22;61072;47.808;7.636;2022-07-22T03:45:02;19.90;99.90
21031;DHT22;61072;47.808;7.636;2022-07-22T03:47:29;19.90;99.90
21031;DHT22;61072;47.808;7.636;2022-07-22T03:50:00;19.90;99.90
21031;DHT22;61072;47.808;7.636;2022-07-22T03:52:30;19.90;99.90
21031;DHT22;61072;47.808;7.636;2022-07-22T03:54:57;19.80;99.90
21031;DHT22;61072;47.808;7.636;2022-07-22T03:57:25;19.70;99.90
21031;DHT22;61072;47.808;7.636;2022-07-22T03:59:54;19.80;99.90
21031;DHT22;61072;47.808;7.636;2022-07-22T04:02:21;19.80;99.90
21031;DHT22;61072;47.808;7.636;2022-07-22T04:04:48;19.70;99.90
21031;DHT22;61072;47.808;7.636;2022-07-22T04:07:17;19.70;99.90
21031;DHT22;61072;47.808;7.636;2022-07-22T04:09:45;19.60;99.90
21031;DHT22;61072;47.808;7.636;2022-07-22T04:12:12;19.60;99.90
21031;DHT22;61072;47.808;7.636;2022-07-22T04:14:38;19.60;99.90
21031;DHT22;61072;47.808;7.636;2022-07-22T04:17:05;19.80;99.90
21031;DHT22;61072;47.808;7.636;2022-07-22T04:19:37;19.70;99.90
21031;DHT22;61072;47.808;7.636;2022-07-22T04:22:04;19.80;99.90
21031;DHT22;61072;47.808;7.636;2022-07-22T04:24:31;19.80;99.90
21031;DHT22;61072;47.808;7.636;2022-07-22T04:26:57;19.80;99.90
21031;DHT22;61072;47.808;7.636;2022-07-22T04:29:24;19.80;99.90
21031;DHT22;61072;47.808;7.636;2022-07-22T04:31:51;19.80;99.90
21031;DHT22;61072;47.808;7.636;2022-07-22T04:34:21;19.70;99.90
21031;DHT22;61072;47.808;7.636;2022-07-22T04:36:48;19.70;99.90
21031;DHT22;61072;47.808;7.636;2022-07-22T04:39:14;19.60;99.90
21031;DHT22;61072;47.808;7.636;2022-07-22T04:41:41;19.60;99.90
21031;DHT22;61072;47.808;7.636;2022-07-22T04:44:08;19.60;99.90
21031;DHT22;61072;47.808;7.636;2022-07-22T04:46:34;19.60;99.90
21031;DHT22;61072;47.808;7.636;2022-07-22T04:49:01;19.60;99.90
21031;DHT22;61072;47.808;7.636;2022-07-22T04:51:28;19.60;99.90
21031;DHT22;61072;47.808;7.636;2022-07-22T04:53:55;19.60;99.90
21031;DHT22;61072;47.808;7.636;2022-07-22T04:56:22;19.70;99.90
21031;DHT22;61072;47.808;7.636;2022-07-22T04:58:49;19.80;99.90
21031;DHT22;61072;47.808;7.636;2022-07-22T05:01:17;19.80;99.90
21031;DHT22;61072;47.808;7.636;2022-07-22T05:03:44;19.90;99.90
21031;DHT22;61072;47.808;7.636;2022-07-22T05:06:11;20.00;99.90
21031;DHT22;61072;47.808;7.636;2022-07-22T05:08:38;20.10;99.90
21031;DHT22;61072;47.808;7.636;2022-07-22T05:11:06;20.30;99.90
21031;DHT22;61072;47.808;7.636;2022-07-22T05:13:33;20.40;99.90
21031;DHT22;61072;47.808;7.636;2022-07-22T05:16:04;20.50;99.90
21031;DHT22;61072;47.808;7.636;2022-07-22T05:18:31;20.60;99.90
21031;DHT22;61072;47.808;7.636;2022-07-22T05:20:59;20.70;99.90
21031;DHT22;61072;47.808;7.636;2022-07-22T05:23:29;20.80;99.90
21031;DHT22;61072;47.808;7.636;2022-07-22T05:25:56;20.80;99.90
21031;DHT22;61072;47.808;7.636;2022-07-22T05:28:23;21.10;99.90
21031;DHT22;61072;47.808;7.636;2022-07-22T05:30:53;21.00;99.90
21031;DHT22;61072;47.808;7.636;2022-07-22T05:33:20;21.20;99.90
21031;DHT22;61072;47.808;7.636;2022-07-22T05:35:46;21.30;99.90
21031;DHT22;61072;47.808;7.636;2022-07-22T05:38:13;21.20;99.90
21031;DHT22;61072;47.808;7.636;2022-07-22T05:40:40;21.40;99.90
21031;DHT22;61072;47.808;7.636;2022-07-22T05:43:07;21.40;99.90
21031;DHT22;61072;47.808;7.636;2022-07-22T05:45:33;21.50;99.90
21031;DHT22;61072;47.808;7.636;2022-07-22T05:48:00;21.50;99.90
21031;DHT22;61072;47.808;7.636;2022-07-22T05:50:28;21.50;99.90
21031;DHT22;61072;47.808;7.636;2022-07-22T05:52:54;21.50;99.90
21031;DHT22;61072;47.808;7.636;2022-07-22T05:55:21;21.50;99.90
21031;DHT22;61072;47.808;7.636;2022-07-22T05:57:48;21.50;99.90
21031;DHT22;61072;47.808;7.636;2022-07-22T06:00:15;21.40;99.90
21031;DHT22;61072;47.808;7.636;2022-07-22T06:02:42;21.50;99.90
21031;DHT22;61072;47.808;7.636;2022-07-22T06:05:09;21.40;99.90
21031;DHT22;61072;47.808;7.636;2022-07-22T06:07:39;21.50;99.90
21031;DHT22;61072;47.808;7.636;2022-07-22T06:10:06;21.40;99.90
21031;DHT22;61072;47.808;7.636;2022-07-22T06:12:33;21.50;99.90
21031;DHT22;61072;47.808;7.636;2022-07-22T06:15:00;21.50;99.90
21031;DHT22;61072;47.808;7.636;2022-07-22T06:17:26;21.40;99.90
21031;DHT22;61072;47.808;7.636;2022-07-22T06:19:53;21.40;99.90
21031;DHT22;61072;47.808;7.636;2022-07-22T06:22:20;21.50;99.90
21031;DHT22;61072;47.808;7.636;2022-07-22T06:24:46;21.50;99.90
21031;DHT22;61072;47.808;7.636;2022-07-22T06:27:13;21.50;99.90
21031;DHT22;61072;47.808;7.636;2022-07-22T06:29:40;21.60;99.90
21031;DHT22;61072;47.808;7.636;2022-07-22T06:32:08;21.60;99.90
21031;DHT22;61072;47.808;7.636;2022-07-22T06:34:34;21.70;99.90
21031;DHT22;61072;47.808;7.636;2022-07-22T06:37:02;21.70;99.90
21031;DHT22;61072;47.808;7.636;2022-07-22T06:39:29;21.70;99.90
21031;DHT22;61072;47.808;7.636;2022-07-22T06:41:56;21.70;99.90
21031;DHT22;61072;47.808;7.636;2022-07-22T06:44:23;21.80;99.90
21031;DHT22;61072;47.808;7.636;2022-07-22T06:46:49;21.80;99.90
21031;DHT22;61072;47.808;7.636;2022-07-22T06:49:18;21.80;99.90
21031;DHT22;61072;47.808;7.636;2022-07-22T06:51:45;21.80;99.90
21031;DHT22;61072;47.808;7.636;2022-07-22T06:54:12;21.80;99.90
21031;DHT22;61072;47.808;7.636;2022-07-22T06:56:38;22.10;99.90
21031;DHT22;61072;47.808;7.636;2022-07-22T06:59:05;21.90;99.90
21031;DHT22;61072;47.808;7.636;2022-07-22T07:01:32;21.90;99.90
21031;DHT22;61072;47.808;7.636;2022-07-22T07:03:59;21.80;99.90
21031;DHT22;61072;47.808;7.636;2022-07-22T07:06:26;21.70;99.90
21031;DHT22;61072;47.808;7.636;2022-07-22T07:08:53;21.80;99.90
21031;DHT22;61072;47.808;7.636;2022-07-22T07:11:20;21.80;99.90
21031;DHT22;61072;47.808;7.636;2022-07-22T07:13:47;21.80;99.90
21031;DHT22;61072;47.808;7.636;2022-07-22T07:16:14;21.70;99.90
21031;DHT22;61072;47.808;7.636;2022-07-22T07:18:41;21.70;99.90
21031;DHT22;61072;47.808;7.636;2022-07-22T07:21:07;21.80;99.90
21031;DHT22;61072;47.808;7.636;2022-07-22T07:23:34;21.80;99.90
21031;DHT22;61072;47.808;7.636;2022-07-22T07:26:01;21.80;99.90
21031;DHT22;61072;47.808;7.636;2022-07-22T07:28:28;21.80;99.90
21031;DHT22;61072;47.808;7.636;2022-07-22T07:30:55;21.90;99.90
21031;DHT22;61072;47.808;7.636;2022-07-22T07:33:23;21.90;99.90
21031;DHT22;61072;47.808;7.636;2022-07-22T07:35:50;21.90;99.90
21031;DHT22;61072;47.808;7.636;2022-07-22T07:38:17;22.00;99.90
21031;DHT22;61072;47.808;7.636;2022-07-22T07:40:44;21.90;99.90
21031;DHT22;61072;47.808;7.636;2022-07-22T07:43:10;21.90;99.90
21031;DHT22;61072;47.808;7.636;2022-07-22T07:45:37;22.00;99.90
21031;DHT22;61072;47.808;7.636;2022-07-22T07:48:04;22.10;99.90
21031;DHT22;61072;47.808;7.636;2022-07-22T07:50:31;22.10;99.90
21031;DHT22;61072;47.808;7.636;2022-07-22T07:52:58;22.10;99.90
21031;DHT22;61072;47.808;7.636;2022-07-22T07:55:25;22.10;99.90
21031;DHT22;61072;47.808;7.636;2022-07-22T07:57:53;22.20;99.90
21031;DHT22;61072;47.808;7.636;2022-07-22T08:00:22;22.20;99.90
21031;DHT22;61072;47.808;7.636;2022-07-22T08:02:50;22.30;99.90
21031;DHT22;61072;47.808;7.636;2022-07-22T08:05:18;22.20;99.90
21031;DHT22;61072;47.808;7.636;2022-07-22T08:07:47;22.30;99.90
21031;DHT22;61072;47.808;7.636;2022-07-22T08:10:15;22.30;99.90
21031;DHT22;61072;47.808;7.636;2022-07-22T08:13:03;22.30;99.90
21031;DHT22;61072;47.808;7.636;2022-07-22T08:15:30;22.30;99.90
21031;DHT22;61072;47.808;7.636;2022-07-22T08:17:57;22.40;99.90
21031;DHT22;61072;47.808;7.636;2022-07-22T08:20:25;22.50;99.90
21031;DHT22;61072;47.808;7.636;2022-07-22T08:22:53;22.50;99.90
21031;DHT22;61072;47.808;7.636;2022-07-22T08:25:20;22.60;99.90
21031;DHT22;61072;47.808;7.636;2022-07-22T08:27:47;22.60;99.90
21031;DHT22;61072;47.808;7.636;2022-07-22T08:30:15;22.70;99.90
21031;DHT22;61072;47.808;7.636;2022-07-22T08:32:42;22.80;99.90
21031;DHT22;61072;47.808;7.636;2022-07-22T08:35:09;22.80;99.90
21031;DHT22;61072;47.808;7.636;2022-07-22T08:37:36;22.80;99.90
21031;DHT22;61072;47.808;7.636;2022-07-22T08:40:04;23.00;99.90
21031;DHT22;61072;47.808;7.636;2022-07-22T08:42:36;22.90;99.90
21031;DHT22;61072;47.808;7.636;2022-07-22T08:45:03;23.00;99.90
21031;DHT22;61072;47.808;7.636;2022-07-22T08:47:32;23.00;99.90
21031;DHT22;61072;47.808;7.636;2022-07-22T08:50:09;23.10;99.90
21031;DHT22;61072;47.808;7.636;2022-07-22T08:52:36;23.20;99.90
21031;DHT22;61072;47.808;7.636;2022-07-22T08:55:07;23.20;99.90
21031;DHT22;61072;47.808;7.636;2022-07-22T08:57:34;23.20;99.90
21031;DHT22;61072;47.808;7.636;2022-07-22T09:00:09;23.30;99.90
21031;DHT22;61072;47.808;7.636;2022-07-22T09:02:39;23.30;99.90
21031;DHT22;61072;47.808;7.636;2022-07-22T09:05:08;23.40;99.90
21031;DHT22;61072;47.808;7.636;2022-07-22T09:07:58;23.40;99.90
21031;DHT22;61072;47.808;7.636;2022-07-22T09:10:31;23.40;99.90
21031;DHT22;61072;47.808;7.636;2022-07-22T09:13:00;23.50;99.90
21031;DHT22;61072;47.808;7.636;2022-07-22T09:15:31;23.60;99.90
21031;DHT22;61072;47.808;7.636;2022-07-22T09:17:59;23.70;99.90
21031;DHT22;61072;47.808;7.636;2022-07-22T09:20:32;23.60;99.90
21031;DHT22;61072;47.808;7.636;2022-07-22T09:22:59;23.70;99.90
21031;DHT22;61072;47.808;7.636;2022-07-22T09:25:36;23.70;99.90
21031;DHT22;61072;47.808;7.636;2022-07-22T09:30:42;23.80;99.90
21031;DHT22;61072;47.808;7.636;2022-07-22T09:33:12;23.90;99.90
21031;DHT22;61072;47.808;7.636;2022-07-22T09:35:39;23.90;99.90
21031;DHT22;61072;47.808;7.636;2022-07-22T09:38:17;24.10;99.90
21031;DHT22;61072;47.808;7.636;2022-07-22T09:40:47;24.10;99.90
21031;DHT22;61072;47.808;7.636;2022-07-22T09:43:19;24.20;99.90
21031;DHT22;61072;47.808;7.636;2022-07-22T09:45:54;24.20;99.90
21031;DHT22;61072;47.808;7.636;2022-07-22T09:48:24;24.20;99.90
21031;DHT22;61072;47.808;7.636;2022-07-22T09:50:53;24.20;99.90
21031;DHT22;61072;47.808;7.636;2022-07-22T09:53:21;24.30;99.90
21031;DHT22;61072;47.808;7.636;2022-07-22T09:55:49;24.30;99.90
21031;DHT22;61072;47.808;7.636;2022-07-22T09:58:16;24.30;99.90
21031;DHT22;61072;47.808;7.636;2022-07-22T10:00:43;24.40;99.90
21031;DHT22;61072;47.808;7.636;2022-07-22T10:03:18;24.50;99.90
21031;DHT22;61072;47.808;7.636;2022-07-22T10:05:48;24.50;99.90
21031;DHT22;61072;47.808;7.636;2022-07-22T10:08:15;24.70;99.90
21031;DHT22;61072;47.808;7.636;2022-07-22T10:10:42;24.70;99.90
21031;DHT22;61072;47.808;7.636;2022-07-22T10:13:10;24.70;99.90
21031;DHT22;61072;47.808;7.636;2022-07-22T10:15:37;24.80;99.90
21031;DHT22;61072;47.808;7.636;2022-07-22T10:18:14;24.80;99.90
21031;DHT22;61072;47.808;7.636;2022-07-22T10:20:41;24.90;99.90
21031;DHT22;61072;47.808;7.636;2022-07-22T10:23:10;24.90;99.90
21031;DHT22;61072;47.808;7.636;2022-07-22T10:25:52;25.00;99.90
21031;DHT22;61072;47.808;7.636;2022-07-22T10:28:36;25.00;99.90
21031;DHT22;61072;47.808;7.636;2022-07-22T10:31:23;25.10;99.90
21031;DHT22;61072;47.808;7.636;2022-07-22T10:33:55;25.20;99.90
21031;DHT22;61072;47.808;7.636;2022-07-22T10:36:34;25.30;99.90
21031;DHT22;61072;47.808;7.636;2022-07-22T10:39:13;25.30;99.90
21031;DHT22;61072;47.808;7.636;2022-07-22T10:41:43;25.40;99.90
21031;DHT22;61072;47.808;7.636;2022-07-22T10:44:47;25.50;99.90
21031;DHT22;61072;47.808;7.636;2022-07-22T10:47:54;25.50;99.90
21031;DHT22;61072;47.808;7.636;2022-07-22T10:53:16;25.60;99.90
21031;DHT22;61072;47.808;7.636;2022-07-22T11:01:13;25.90;99.90
21031;DHT22;61072;47.808;7.636;2022-07-22T11:03:43;26.00;99.90
21031;DHT22;61072;47.808;7.636;2022-07-22T11:06:26;26.00;99.90
21031;DHT22;61072;47.808;7.636;2022-07-22T11:09:06;26.10;99.90
21031;DHT22;61072;47.808;7.636;2022-07-22T11:12:11;26.20;99.90
21031;DHT22;61072;47.808;7.636;2022-07-22T11:14:33;26.20;99.90
21031;DHT22;61072;47.808;7.636;2022-07-22T11:19:32;26.40;99.90
21031;DHT22;61072;47.808;7.636;2022-07-22T11:22:04;26.30;99.90
21031;DHT22;61072;47.808;7.636;2022-07-22T11:24:32;26.30;99.90
21031;DHT22;61072;47.808;7.636;2022-07-22T11:27:00;26.30;99.90
21031;DHT22;61072;47.808;7.636;2022-07-22T11:29:39;26.30;99.90
21031;DHT22;61072;47.808;7.636;2022-07-22T11:32:08;26.40;99.90
21031;DHT22;61072;47.808;7.636;2022-07-22T11:34:41;26.40;99.90
21031;DHT22;61072;47.808;7.636;2022-07-22T11:37:15;26.40;99.90
21031;DHT22;61072;47.808;7.636;2022-07-22T11:39:42;26.40;99.90
21031;DHT22;61072;47.808;7.636;2022-07-22T11:42:09;26.50;99.90
21031;DHT22;61072;47.808;7.636;2022-07-22T11:44:37;26.50;99.90
21031;DHT22;61072;47.808;7.636;2022-07-22T11:47:06;26.60;99.90
21031;DHT22;61072;47.808;7.636;2022-07-22T11:49:35;26.70;99.90
21031;DHT22;61072;47.808;7.636;2022-07-22T11:52:09;26.70;99.90
21031;DHT22;61072;47.808;7.636;2022-07-22T11:54:40;26.80;99.90
21031;DHT22;61072;47.808;7.636;2022-07-22T11:57:07;26.90;99.90
21031;DHT22;61072;47.808;7.636;2022-07-22T11:59:35;27.20;99.90
21031;DHT22;61072;47.808;7.636;2022-07-22T12:02:03;27.10;99.90
21031;DHT22;61072;47.808;7.636;2022-07-22T12:04:31;27.10;99.90
21031;DHT22;61072;47.808;7.636;2022-07-22T12:07:00;27.10;99.90
21031;DHT22;61072;47.808;7.636;2022-07-22T12:09:33;27.10;99.90
21031;DHT22;61072;47.808;7.636;2022-07-22T12:12:01;27.10;99.90
21031;DHT22;61072;47.808;7.636;2022-07-22T12:14:30;27.10;99.90
21031;DHT22;61072;47.808;7.636;2022-07-22T12:17:02;27.20;99.90
21031;DHT22;61072;47.808;7.636;2022-07-22T12:19:33;27.30;99.90
21031;DHT22;61072;47.808;7.636;2022-07-22T12:22:32;27.50;99.90
21031;DHT22;61072;47.808;7.636;2022-07-22T12:25:00;27.50;99.90
21031;DHT22;61072;47.808;7.636;2022-07-22T12:27:28;27.50;99.90
21031;DHT22;61072;47.808;7.636;2022-07-22T12:29:55;27.60;99.90
21031;DHT22;61072;47.808;7.636;2022-07-22T12:34:56;27.60;99.90
21031;DHT22;61072;47.808;7.636;2022-07-22T12:37:26;27.60;99.90
21031;DHT22;61072;47.808;7.636;2022-07-22T12:42:41;27.70;99.90
21031;DHT22;61072;47.808;7.636;2022-07-22T12:45:15;27.70;99.90
21031;DHT22;61072;47.808;7.636;2022-07-22T12:50:34;27.90;99.90
21031;DHT22;61072;47.808;7.636;2022-07-22T12:53:03;28.00;99.90
21031;DHT22;61072;47.808;7.636;2022-07-22T12:55:44;28.00;99.90
21031;DHT22;61072;47.808;7.636;2022-07-22T12:58:12;28.00;99.90
21031;DHT22;61072;47.808;7.636;2022-07-22T13:00:43;28.00;99.90
21031;DHT22;61072;47.808;7.636;2022-07-22T13:03:10;28.20;99.90
21031;DHT22;61072;47.808;7.636;2022-07-22T13:05:37;28.40;99.90
21031;DHT22;61072;47.808;7.636;2022-07-22T13:08:04;28.30;99.90
21031;DHT22;61072;47.808;7.636;2022-07-22T13:10:35;28.30;99.90
21031;DHT22;61072;47.808;7.636;2022-07-22T13:13:05;28.20;99.90
21031;DHT22;61072;47.808;7.636;2022-07-22T13:15:32;28.20;99.90
21031;DHT22;61072;47.808;7.636;2022-07-22T13:17:59;28.10;99.90
21031;DHT22;61072;47.808;7.636;2022-07-22T13:20:26;28.20;99.90
21031;DHT22;61072;47.808;7.636;2022-07-22T13:22:52;28.30;99.90
21031;DHT22;61072;47.808;7.636;2022-07-22T13:25:19;28.30;99.90
21031;DHT22;61072;47.808;7.636;2022-07-22T13:27:46;28.30;99.90
21031;DHT22;61072;47.808;7.636;2022-07-22T13:30:13;28.40;99.90
21031;DHT22;61072;47.808;7.636;2022-07-22T13:32:40;28.40;99.90
21031;DHT22;61072;47.808;7.636;2022-07-22T13:35:15;28.40;99.90
21031;DHT22;61072;47.808;7.636;2022-07-22T13:37:42;28.50;99.90
21031;DHT22;61072;47.808;7.636;2022-07-22T13:40:09;28.50;99.90
21031;DHT22;61072;47.808;7.636;2022-07-22T13:42:36;28.50;99.90
21031;DHT22;61072;47.808;7.636;2022-07-22T13:45:03;28.50;99.90
21031;DHT22;61072;47.808;7.636;2022-07-22T13:47:31;28.60;99.90
21031;DHT22;61072;47.808;7.636;2022-07-22T13:49:58;28.60;99.90
21031;DHT22;61072;47.808;7.636;2022-07-22T13:52:25;28.60;99.90
21031;DHT22;61072;47.808;7.636;2022-07-22T13:54:51;28.60;99.90
21031;DHT22;61072;47.808;7.636;2022-07-22T13:57:19;28.70;99.90
21031;DHT22;61072;47.808;7.636;2022-07-22T13:59:46;28.80;99.90
21031;DHT22;61072;47.808;7.636;2022-07-22T14:02:13;28.90;99.90
21031;DHT22;61072;47.808;7.636;2022-07-22T14:04:40;28.90;99.90
21031;DHT22;61072;47.808;7.636;2022-07-22T14:07:07;28.90;99.90
21031;DHT22;61072;47.808;7.636;2022-07-22T14:09:37;28.90;99.90
21031;DHT22;61072;47.808;7.636;2022-07-22T14:12:04;28.90;99.90
21031;DHT22;61072;47.808;7.636;2022-07-22T14:14:31;28.90;99.90
21031;DHT22;61072;47.808;7.636;2022-07-22T14:16:58;28.90;99.90
21031;DHT22;61072;47.808;7.636;2022-07-22T14:19:27;28.90;99.90
21031;DHT22;61072;47.808;7.636;2022-07-22T14:21:55;28.90;99.90
21031;DHT22;61072;47.808;7.636;2022-07-22T14:24:22;29.00;99.90
21031;DHT22;61072;47.808;7.636;2022-07-22T14:26:49;29.10;99.90
21031;DHT22;61072;47.808;7.636;2022-07-22T14:29:16;29.10;99.90
21031;DHT22;61072;47.808;7.636;2022-07-22T14:31:43;29.20;99.90
21031;DHT22;61072;47.808;7.636;2022-07-22T14:34:10;29.30;99.90
21031;DHT22;61072;47.808;7.636;2022-07-22T14:36:36;29.30;99.90
21031;DHT22;61072;47.808;7.636;2022-07-22T14:39:03;29.40;99.90
21031;DHT22;61072;47.808;7.636;2022-07-22T14:41:30;29.40;99.90
21031;DHT22;61072;47.808;7.636;2022-07-22T14:43:57;29.40;99.90
21031;DHT22;61072;47.808;7.636;2022-07-22T14:46:24;29.50;99.90
21031;DHT22;61072;47.808;7.636;2022-07-22T14:48:51;29.50;99.90
21031;DHT22;61072;47.808;7.636;2022-07-22T14:51:22;29.50;99.90
21031;DHT22;61072;47.808;7.636;2022-07-22T14:53:49;29.60;99.90
21031;DHT22;61072;47.808;7.636;2022-07-22T14:56:16;29.60;99.90
21031;DHT22;61072;47.808;7.636;2022-07-22T14:58:44;29.60;99.90
21031;DHT22;61072;47.808;7.636;2022-07-22T15:01:11;29.60;99.90
21031;DHT22;61072;47.808;7.636;2022-07-22T15:03:40;29.70;99.90
21031;DHT22;61072;47.808;7.636;2022-07-22T15:06:07;29.80;99.90
21031;DHT22;61072;47.808;7.636;2022-07-22T15:08:34;29.90;99.90
21031;DHT22;61072;47.808;7.636;2022-07-22T15:11:01;29.90;99.90
21031;DHT22;61072;47.808;7.636;2022-07-22T15:13:28;29.90;99.90
21031;DHT22;61072;47.808;7.636;2022-07-22T15:15:56;30.00;99.90
21031;DHT22;61072;47.808;7.636;2022-07-22T15:18:23;29.90;99.90
21031;DHT22;61072;47.808;7.636;2022-07-22T15:20:50;30.00;99.90
21031;DHT22;61072;47.808;7.636;2022-07-22T15:23:21;29.90;99.90
21031;DHT22;61072;47.808;7.636;2022-07-22T15:25:48;29.90;99.90
21031;DHT22;61072;47.808;7.636;2022-07-22T15:28:15;29.90;99.90
21031;DHT22;61072;47.808;7.636;2022-07-22T15:30:59;30.00;99.90
21031;DHT22;61072;47.808;7.636;2022-07-22T15:33:26;30.20;99.90
21031;DHT22;61072;47.808;7.636;2022-07-22T15:36:03;30.20;99.90
21031;DHT22;61072;47.808;7.636;2022-07-22T15:38:32;30.30;99.90
21031;DHT22;61072;47.808;7.636;2022-07-22T15:40:59;30.30;99.90
21031;DHT22;61072;47.808;7.636;2022-07-22T15:43:26;30.30;99.90
21031;DHT22;61072;47.808;7.636;2022-07-22T15:45:52;30.50;99.90
21031;DHT22;61072;47.808;7.636;2022-07-22T15:48:19;30.60;99.90
21031;DHT22;61072;47.808;7.636;2022-07-22T15:50:46;30.50;99.90
21031;DHT22;61072;47.808;7.636;2022-07-22T15:53:13;30.50;99.90
21031;DHT22;61072;47.808;7.636;2022-07-22T15:55:40;30.60;99.90
21031;DHT22;61072;47.808;7.636;2022-07-22T15:58:08;30.60;99.90
21031;DHT22;61072;47.808;7.636;2022-07-22T16:00:54;30.60;99.90